createdAt,value
2023-02-22T00:01:21.899Z,50.87
2023-02-22T00:03:50.607Z,60.20
2023-02-22T00:06:18.887Z,52.00
2023-02-22T00:08:47.520Z,52.27
2023-02-22T00:11:15.040Z,51.13
2023-02-22T00:13:45.050Z,55.13
2023-02-22T00:16:17.004Z,65.03
2023-02-22T00:18:44.541Z,54.97
2023-02-22T00:21:12.893Z,62.37
2023-02-22T00:23:46.621Z,49.67
2023-02-22T00:26:18.347Z,61.90
2023-02-22T00:28:46.592Z,50.03
2023-02-22T00:31:15.050Z,66.43
2023-02-22T00:33:42.796Z,55.47
2023-02-22T00:36:11.303Z,57.43
2023-02-22T00:38:38.800Z,51.77
2023-02-22T00:41:06.132Z,50.83
2023-02-22T00:43:33.613Z,56.97
2023-02-22T00:46:01.063Z,54.07
2023-02-22T00:48:29.044Z,54.80
2023-02-22T00:50:56.243Z,52.57
2023-02-22T00:53:25.134Z,54.57
2023-02-22T00:55:52.985Z,60.40
2023-02-22T00:58:20.392Z,52.17
2023-02-22T01:00:47.985Z,56.37
2023-02-22T01:03:16.656Z,58.00
2023-02-22T01:05:44.010Z,52.37
2023-02-22T01:08:12.823Z,62.27
2023-02-22T01:10:40.694Z,56.63
2023-02-22T01:13:09.567Z,54.43
2023-02-22T01:15:38.369Z,59.43
2023-02-22T01:18:05.629Z,56.77
2023-02-22T01:20:33.166Z,55.47
2023-02-22T01:23:01.414Z,65.07
2023-02-22T01:25:29.753Z,55.20
2023-02-22T01:27:57.541Z,54.53
2023-02-22T01:30:26.377Z,63.00
2023-02-22T01:32:54.062Z,59.77
2023-02-22T01:35:23.696Z,55.67
2023-02-22T01:37:50.966Z,62.47
2023-02-22T01:40:20.378Z,54.93
2023-02-22T01:42:54.482Z,55.27
2023-02-22T01:45:30.742Z,60.10
2023-02-22T01:47:58.911Z,57.77
2023-02-22T01:50:28.760Z,60.37
2023-02-22T01:52:56.618Z,61.90
2023-02-22T01:55:24.144Z,67.07
2023-02-22T01:57:51.344Z,57.60
2023-02-22T02:00:21.171Z,56.63
2023-02-22T02:03:02.456Z,55.97
2023-02-22T02:05:31.423Z,59.10
2023-02-22T02:07:59.179Z,58.93
2023-02-22T02:10:27.362Z,51.33
2023-02-22T02:12:54.753Z,51.90
2023-02-22T02:15:22.028Z,51.23
2023-02-22T02:17:49.904Z,54.60
2023-02-22T02:20:21.250Z,54.37
2023-02-22T02:22:55.171Z,57.40
2023-02-22T02:25:26.545Z,55.50
2023-02-22T02:28:12.682Z,50.63
2023-02-22T02:30:45.950Z,54.37
2023-02-22T02:33:23.178Z,58.93
2023-02-22T02:35:57.711Z,76.60
2023-02-22T02:38:44.688Z,103.10
2023-02-22T02:41:17.347Z,79.43
2023-02-22T02:43:49.004Z,69.90
2023-02-22T02:46:36.406Z,81.20
2023-02-22T02:49:08.392Z,64.70
2023-02-22T02:51:39.216Z,73.63
2023-02-22T02:54:07.497Z,74.20
2023-02-22T02:56:35.426Z,60.63
2023-02-22T02:59:02.595Z,132.07
2023-02-22T03:01:35.579Z,66.93
2023-02-22T03:04:07.889Z,116.47
2023-02-22T03:06:44.243Z,57.43
2023-02-22T03:09:13.676Z,83.50
2023-02-22T03:12:10.392Z,52.37
2023-02-22T03:14:43.115Z,53.50
2023-02-22T03:17:13.108Z,86.13
2023-02-22T03:19:40.213Z,43.00
2023-02-22T03:22:10.232Z,47.67
2023-02-22T03:24:58.991Z,58.60
2023-02-22T03:27:35.344Z,44.77
2023-02-22T03:30:06.561Z,64.03
2023-02-22T03:32:36.011Z,38.83
2023-02-22T03:35:23.439Z,49.27
2023-02-22T03:37:53.283Z,46.93
2023-02-22T03:40:26.473Z,40.20
2023-02-22T03:42:59.204Z,46.87
2023-02-22T03:45:27.791Z,59.17
2023-02-22T03:48:02.497Z,68.07
2023-02-22T03:50:31.620Z,44.03
2023-02-22T03:53:01.795Z,47.40
2023-02-22T03:55:29.083Z,46.67
2023-02-22T03:57:58.354Z,43.40
2023-02-22T04:00:27.946Z,79.10
2023-02-22T04:02:55.559Z,49.00
2023-02-22T04:05:24.887Z,82.97
2023-02-22T04:07:53.284Z,38.27
2023-02-22T04:10:21.238Z,32.93
2023-02-22T04:12:48.496Z,61.87
2023-02-22T04:15:17.886Z,44.47
2023-02-22T04:17:45.013Z,94.53
2023-02-22T04:20:13.724Z,80.27
2023-02-22T04:22:41.308Z,74.17
2023-02-22T04:25:08.867Z,79.60
2023-02-22T04:27:36.052Z,72.77
2023-02-22T04:30:03.228Z,60.03
2023-02-22T04:32:30.366Z,71.73
2023-02-22T04:34:57.525Z,31.57
2023-02-22T04:37:24.693Z,37.63
2023-02-22T04:39:51.921Z,43.80
2023-02-22T04:42:19.246Z,63.50
2023-02-22T04:44:46.401Z,40.37
2023-02-22T04:47:13.903Z,39.93
2023-02-22T04:49:41.155Z,48.93
2023-02-22T04:52:08.363Z,40.60
2023-02-22T04:54:35.620Z,39.83
2023-02-22T04:57:02.896Z,44.53
2023-02-22T04:59:30.173Z,35.30
2023-02-22T05:01:57.322Z,41.47
2023-02-22T05:04:24.510Z,35.90
2023-02-22T05:06:53.444Z,34.20
2023-02-22T05:09:22.285Z,43.53
2023-02-22T05:11:49.601Z,31.30
2023-02-22T05:14:16.805Z,33.47
2023-02-22T05:16:44.123Z,85.20
2023-02-22T05:19:11.439Z,36.90
2023-02-22T05:21:40.282Z,74.47
2023-02-22T05:24:07.857Z,47.40
2023-02-22T05:26:35.002Z,43.67
2023-02-22T05:29:02.227Z,50.60
2023-02-22T05:31:29.684Z,62.57
2023-02-22T05:33:58.253Z,36.80
2023-02-22T05:36:25.797Z,52.00
2023-02-22T05:38:52.982Z,42.50
2023-02-22T05:41:20.357Z,41.00
2023-02-22T05:43:47.819Z,58.37
2023-02-22T05:46:15.683Z,46.97
2023-02-22T05:48:42.884Z,48.90
2023-02-22T05:51:10.662Z,49.43
2023-02-22T05:53:38.020Z,76.13
2023-02-22T05:56:05.413Z,53.23
2023-02-22T05:58:32.608Z,52.30
2023-02-22T06:01:01.594Z,38.90
2023-02-22T06:03:30.123Z,57.47
2023-02-22T06:05:58.068Z,41.13
2023-02-22T06:08:25.269Z,42.40
2023-02-22T06:10:52.422Z,61.30
2023-02-22T06:13:19.646Z,50.73
2023-02-22T06:15:46.928Z,61.13
2023-02-22T06:18:14.139Z,92.50
2023-02-22T06:20:41.859Z,42.53
2023-02-22T06:23:09.069Z,55.40
2023-02-22T06:25:36.740Z,41.30
2023-02-22T06:28:04.351Z,42.27
2023-02-22T06:30:31.779Z,43.73
2023-02-22T06:32:59.128Z,39.53
2023-02-22T06:35:26.398Z,37.93
2023-02-22T06:37:53.685Z,38.30
2023-02-22T06:40:20.946Z,42.37
2023-02-22T06:42:49.290Z,36.33
2023-02-22T06:45:17.692Z,68.37
2023-02-22T06:47:44.903Z,39.97
2023-02-22T06:50:33.754Z,55.43
2023-02-22T06:53:02.744Z,38.83
2023-02-22T06:55:31.662Z,41.80
2023-02-22T06:57:58.870Z,40.67
2023-02-22T07:00:27.080Z,32.60
2023-02-22T07:02:54.614Z,33.77
2023-02-22T07:05:22.442Z,40.03
2023-02-22T07:07:50.492Z,38.53
2023-02-22T07:10:19.992Z,65.83
2023-02-22T07:12:47.196Z,34.93
2023-02-22T07:15:14.547Z,41.83
2023-02-22T07:17:41.748Z,42.90
2023-02-22T07:20:11.537Z,34.80
2023-02-22T07:22:39.237Z,33.90
2023-02-22T07:25:09.933Z,34.80
2023-02-22T07:27:37.638Z,27.53
2023-02-22T07:30:05.987Z,31.80
2023-02-22T07:32:33.427Z,35.93
2023-02-22T07:35:02.915Z,32.03
2023-02-22T07:37:30.347Z,30.57
2023-02-22T07:39:57.471Z,27.53
2023-02-22T07:42:24.647Z,33.83
2023-02-22T07:44:52.084Z,24.53
2023-02-22T07:47:20.681Z,23.97
2023-02-22T07:49:47.918Z,25.60
2023-02-22T07:52:15.099Z,25.87
2023-02-22T07:54:42.263Z,26.87
2023-02-22T07:57:09.410Z,23.70
2023-02-22T07:59:36.559Z,22.07
2023-02-22T08:02:03.770Z,29.00
2023-02-22T08:04:30.998Z,21.80
2023-02-22T08:06:58.250Z,23.77
2023-02-22T08:09:25.408Z,22.40
2023-02-22T08:11:52.601Z,23.40
2023-02-22T08:14:19.719Z,27.77
2023-02-22T08:16:46.969Z,29.63
2023-02-22T08:19:14.179Z,24.33
2023-02-22T08:21:41.329Z,29.73
2023-02-22T08:24:08.579Z,21.57
2023-02-22T08:26:35.740Z,23.17
2023-02-22T08:29:02.907Z,27.93
2023-02-22T08:31:30.103Z,22.47
2023-02-22T08:33:57.492Z,20.47
2023-02-22T08:36:24.732Z,22.60
2023-02-22T08:38:51.947Z,23.27
2023-02-22T08:41:19.403Z,22.23
2023-02-22T08:43:46.930Z,22.30
2023-02-22T08:46:14.081Z,21.23
2023-02-22T08:48:50.030Z,20.37
2023-02-22T08:51:17.413Z,25.37
2023-02-22T08:53:44.828Z,23.53
2023-02-22T08:56:12.372Z,22.43
2023-02-22T08:58:39.650Z,21.43
2023-02-22T09:01:06.974Z,24.87
2023-02-22T09:03:34.205Z,24.30
2023-02-22T09:06:01.513Z,24.13
2023-02-22T09:08:28.733Z,42.97
2023-02-22T09:10:55.930Z,26.07
2023-02-22T09:13:23.165Z,19.53
2023-02-22T09:15:50.341Z,21.50
2023-02-22T09:18:18.148Z,21.37
2023-02-22T09:20:45.386Z,21.03
2023-02-22T09:23:14.499Z,24.17
2023-02-22T09:25:41.901Z,20.97
2023-02-22T09:28:09.286Z,20.10
2023-02-22T09:30:37.739Z,17.80
2023-02-22T09:33:10.271Z,23.37
2023-02-22T09:35:37.752Z,23.10
2023-02-22T09:38:08.612Z,22.57
2023-02-22T09:40:45.152Z,19.07
2023-02-22T09:43:32.859Z,23.80
2023-02-22T09:46:05.899Z,20.57
2023-02-22T09:48:36.349Z,21.47
2023-02-22T09:51:09.327Z,27.60
2023-02-22T09:53:42.125Z,21.07
2023-02-22T09:56:14.944Z,22.00
2023-02-22T09:58:52.232Z,21.90
2023-02-22T10:01:32.685Z,19.40
2023-02-22T10:04:02.728Z,18.53
2023-02-22T10:06:30.363Z,20.80
2023-02-22T10:09:00.318Z,21.50
2023-02-22T10:11:30.593Z,21.10
2023-02-22T10:14:05.287Z,25.77
2023-02-22T10:16:41.991Z,19.43
2023-02-22T10:19:28.488Z,18.97
2023-02-22T10:21:59.257Z,16.87
2023-02-22T10:24:38.481Z,15.73
2023-02-22T10:27:10.918Z,20.97
2023-02-22T10:29:39.923Z,16.97
2023-02-22T10:32:07.967Z,15.50
2023-02-22T10:34:40.491Z,12.70
2023-02-22T10:37:21.926Z,13.90
2023-02-22T10:39:52.882Z,19.73
2023-02-22T10:42:22.126Z,15.90
2023-02-22T10:44:49.269Z,13.10
2023-02-22T10:47:18.537Z,18.70
2023-02-22T10:49:55.681Z,13.43
2023-02-22T10:52:28.228Z,15.63
2023-02-22T10:55:13.621Z,13.47
2023-02-22T10:57:43.973Z,12.10
2023-02-22T11:00:30.025Z,13.50
2023-02-22T11:02:59.032Z,11.57
2023-02-22T11:05:30.988Z,10.90
2023-02-22T11:08:17.037Z,11.73
2023-02-22T11:10:44.279Z,10.52
2023-02-22T11:13:26.844Z,7.75
2023-02-22T11:15:54.931Z,10.70
2023-02-22T11:18:33.593Z,11.15
2023-02-22T11:21:06.304Z,9.95
2023-02-22T11:23:34.071Z,8.55
2023-02-22T11:26:03.000Z,12.40
2023-02-22T11:28:32.853Z,9.07
2023-02-22T11:31:10.114Z,10.63
2023-02-22T11:33:37.981Z,8.77
2023-02-22T11:36:08.868Z,8.05
2023-02-22T11:38:37.971Z,8.27
2023-02-22T11:41:17.391Z,7.93
2023-02-22T11:43:45.889Z,9.88
2023-02-22T11:46:15.532Z,9.68
2023-02-22T11:48:45.756Z,8.32
2023-02-22T11:51:35.827Z,9.73
2023-02-22T11:54:28.632Z,30.45
2023-02-22T11:57:04.633Z,10.63
2023-02-22T12:00:07.649Z,8.13
2023-02-22T12:02:59.042Z,8.88
2023-02-22T12:06:02.381Z,7.65
2023-02-22T12:08:38.063Z,8.27
2023-02-22T12:11:23.789Z,7.13
2023-02-22T12:14:24.423Z,9.05
2023-02-22T12:17:19.147Z,8.60
2023-02-22T12:19:56.091Z,7.65
2023-02-22T12:22:36.382Z,9.65
2023-02-22T12:25:19.578Z,11.05
2023-02-22T12:27:49.349Z,9.50
2023-02-22T12:30:30.800Z,12.07
2023-02-22T12:33:00.719Z,7.75
2023-02-22T12:35:37.581Z,8.88
2023-02-22T12:38:49.011Z,9.20
2023-02-22T12:41:44.799Z,9.57
2023-02-22T12:44:29.833Z,10.20
2023-02-22T12:47:00.065Z,10.25
2023-02-22T12:49:54.567Z,14.23
2023-02-22T12:52:24.054Z,9.30
2023-02-22T12:55:04.403Z,12.85
2023-02-22T12:57:55.105Z,11.52
2023-02-22T13:00:33.116Z,7.97
2023-02-22T13:03:15.388Z,8.02
2023-02-22T13:05:43.238Z,10.15
2023-02-22T13:08:25.487Z,9.07
2023-02-22T13:11:18.907Z,14.15
2023-02-22T13:14:18.058Z,16.48
2023-02-22T13:17:01.877Z,13.20
2023-02-22T13:19:42.617Z,12.05
2023-02-22T13:22:19.512Z,11.63
2023-02-22T13:25:18.255Z,12.30
2023-02-22T13:28:13.068Z,10.25
2023-02-22T13:30:51.177Z,9.63
2023-02-22T13:33:32.764Z,9.93
2023-02-22T13:36:43.536Z,14.15
2023-02-22T13:39:29.154Z,10.07
2023-02-22T13:42:14.140Z,10.20
2023-02-22T13:44:57.280Z,14.38
2023-02-22T13:47:30.016Z,12.32
2023-02-22T13:50:41.464Z,11.77
2023-02-22T13:53:18.829Z,10.98
2023-02-22T13:55:53.212Z,13.88
2023-02-22T13:58:21.052Z,12.75
2023-02-22T14:01:00.394Z,13.65
2023-02-22T14:03:42.688Z,15.25
2023-02-22T14:06:37.295Z,13.85
2023-02-22T14:09:09.773Z,18.30
2023-02-22T14:11:36.645Z,15.25
2023-02-22T14:14:14.526Z,17.73
2023-02-22T14:16:41.494Z,15.30
2023-02-22T14:19:15.430Z,15.20
2023-02-22T14:22:06.755Z,23.55
2023-02-22T14:24:46.816Z,17.10
2023-02-22T14:27:15.620Z,16.45
2023-02-22T14:30:00.495Z,19.25
2023-02-22T14:32:35.267Z,14.57
2023-02-22T14:35:25.691Z,14.13
2023-02-22T14:37:57.650Z,16.33
2023-02-22T14:40:35.006Z,17.83
2023-02-22T14:43:14.952Z,12.27
2023-02-22T14:45:53.935Z,13.65
2023-02-22T14:48:25.325Z,14.05
2023-02-22T14:51:11.784Z,12.10
2023-02-22T14:53:54.206Z,10.70
2023-02-22T14:56:26.814Z,18.35
2023-02-22T14:59:19.689Z,13.70
2023-02-22T15:01:58.671Z,11.57
2023-02-22T15:04:32.854Z,15.25
2023-02-22T15:07:07.514Z,13.00
2023-02-22T15:09:37.611Z,17.52
2023-02-22T15:12:04.812Z,13.43
2023-02-22T15:14:37.738Z,16.45
2023-02-22T15:17:10.434Z,17.38
2023-02-22T15:19:41.643Z,15.32
2023-02-22T15:22:20.856Z,16.75
2023-02-22T15:25:00.635Z,15.05
2023-02-22T15:27:28.545Z,16.02
2023-02-22T15:30:04.510Z,19.08
2023-02-22T15:32:49.875Z,20.30
2023-02-22T15:35:24.043Z,15.95
2023-02-22T15:38:06.444Z,16.08
2023-02-22T15:40:34.917Z,16.88
2023-02-22T15:43:08.845Z,14.63
2023-02-22T15:45:42.729Z,17.52
2023-02-22T15:48:11.501Z,15.05
2023-02-22T15:50:39.160Z,13.27
2023-02-22T15:53:07.718Z,13.73
2023-02-22T15:55:47.225Z,19.13
2023-02-22T15:58:17.061Z,21.55
2023-02-22T16:01:00.083Z,15.18
2023-02-22T16:03:33.887Z,17.17
2023-02-22T16:06:00.765Z,16.23
2023-02-22T16:08:52.616Z,18.33
2023-02-22T16:11:34.186Z,15.68
2023-02-22T16:14:06.839Z,16.70
2023-02-22T16:16:36.432Z,16.08
2023-02-22T16:19:21.945Z,14.38
2023-02-22T16:22:03.210Z,15.10
2023-02-22T16:24:35.545Z,14.98
2023-02-22T16:27:06.084Z,21.25
2023-02-22T16:29:33.254Z,16.00
2023-02-22T16:32:01.756Z,16.27
2023-02-22T16:34:28.683Z,20.17
2023-02-22T16:36:55.854Z,19.75
2023-02-22T16:39:30.252Z,16.33
2023-02-22T16:42:02.520Z,15.63
2023-02-22T16:44:29.871Z,16.65
2023-02-22T16:46:59.099Z,21.15
2023-02-22T16:49:26.556Z,17.50
2023-02-22T16:51:56.591Z,16.95
2023-02-22T16:54:30.008Z,20.83
2023-02-22T16:57:00.260Z,15.70
2023-02-22T16:59:27.174Z,20.33
2023-02-22T17:01:54.331Z,17.67
2023-02-22T17:04:24.092Z,21.93
2023-02-22T17:06:50.932Z,17.10
2023-02-22T17:09:20.144Z,16.10
2023-02-22T17:11:50.414Z,15.93
2023-02-22T17:14:20.700Z,16.43
2023-02-22T17:16:47.522Z,16.37
2023-02-22T17:19:21.131Z,20.20
2023-02-22T17:21:49.162Z,18.70
2023-02-22T17:24:22.376Z,17.23
2023-02-22T17:26:49.957Z,18.90
2023-02-22T17:29:17.879Z,22.27
2023-02-22T17:31:45.162Z,20.67
2023-02-22T17:34:12.099Z,44.80
2023-02-22T17:36:38.933Z,50.17
2023-02-22T17:39:06.158Z,58.93
2023-02-22T17:41:32.913Z,44.67
2023-02-22T17:43:59.701Z,27.70
2023-02-22T17:46:26.613Z,26.07
2023-02-22T17:48:56.591Z,21.73
2023-02-22T17:51:24.905Z,25.37
2023-02-22T17:53:52.160Z,24.00
2023-02-22T17:56:20.307Z,23.47
2023-02-22T17:58:53.430Z,27.13
2023-02-22T18:01:27.130Z,22.43
2023-02-22T18:03:59.850Z,23.30
2023-02-22T18:06:29.895Z,28.03
2023-02-22T18:08:58.199Z,28.00
2023-02-22T18:11:27.092Z,30.27
2023-02-22T18:13:55.864Z,33.00
2023-02-22T18:16:23.242Z,35.03
2023-02-22T18:18:50.300Z,33.80
2023-02-22T18:21:17.138Z,36.80
2023-02-22T18:23:47.207Z,30.00
2023-02-22T18:26:19.830Z,31.37
2023-02-22T18:28:48.676Z,32.87
2023-02-22T18:31:17.958Z,38.03
2023-02-22T18:33:47.880Z,28.90
2023-02-22T18:36:16.474Z,27.37
2023-02-22T18:38:43.943Z,30.17
2023-02-22T18:41:16.308Z,27.63
2023-02-22T18:43:44.688Z,28.37
2023-02-22T18:46:20.541Z,29.93
2023-02-22T18:48:48.891Z,26.70
2023-02-22T18:51:19.743Z,36.73
2023-02-22T18:53:48.000Z,34.70
2023-02-22T18:56:17.161Z,34.77
2023-02-22T18:58:45.079Z,34.30
2023-02-22T19:01:16.617Z,30.17
2023-02-22T19:03:44.180Z,29.90
2023-02-22T19:06:11.474Z,34.43
2023-02-22T19:08:39.786Z,29.47
2023-02-22T19:11:21.674Z,29.77
2023-02-22T19:13:50.725Z,26.90
2023-02-22T19:16:20.151Z,28.90
2023-02-22T19:18:48.673Z,36.10
2023-02-22T19:21:16.631Z,30.27
2023-02-22T19:23:48.050Z,35.43
2023-02-22T19:26:20.095Z,31.00
2023-02-22T19:28:47.874Z,28.90
2023-02-22T19:31:16.528Z,33.07
2023-02-22T19:33:44.201Z,34.50
2023-02-22T19:36:12.581Z,33.93
2023-02-22T19:38:41.014Z,34.37
2023-02-22T19:41:13.593Z,33.00
2023-02-22T19:43:40.867Z,30.53
2023-02-22T19:46:08.689Z,31.97
2023-02-22T19:48:35.935Z,33.07
2023-02-22T19:51:13.455Z,36.20
2023-02-22T19:53:41.167Z,35.40
2023-02-22T19:56:12.525Z,31.43
2023-02-22T19:58:41.138Z,28.77
2023-02-22T20:01:22.887Z,28.77
2023-02-22T20:03:54.350Z,31.73
2023-02-22T20:06:23.195Z,31.63
2023-02-22T20:08:51.136Z,33.67
2023-02-22T20:11:18.704Z,31.23
2023-02-22T20:13:46.127Z,35.00
2023-02-22T20:16:16.534Z,41.67
2023-02-22T20:18:44.356Z,33.40
2023-02-22T20:21:13.975Z,37.83
2023-02-22T20:23:44.282Z,49.63
2023-02-22T20:26:19.045Z,53.87
2023-02-22T20:28:46.428Z,58.13
2023-02-22T20:31:14.864Z,89.07
2023-02-22T20:33:42.769Z,76.77
2023-02-22T20:36:11.220Z,71.90
2023-02-22T20:38:38.883Z,70.90
2023-02-22T20:41:10.236Z,60.43
2023-02-22T20:43:37.418Z,59.47
2023-02-22T20:46:05.381Z,53.07
2023-02-22T20:48:33.065Z,64.57
2023-02-22T20:51:07.182Z,53.13
2023-02-22T20:53:35.399Z,49.77
2023-02-22T20:56:02.886Z,52.27
2023-02-22T20:58:30.217Z,56.30
2023-02-22T21:00:57.355Z,63.30
2023-02-22T21:03:24.525Z,54.97
2023-02-22T21:05:51.963Z,61.63
2023-02-22T21:08:19.240Z,52.43
2023-02-22T21:10:47.278Z,61.33
2023-02-22T21:13:14.992Z,60.43
2023-02-22T21:15:43.476Z,54.47
2023-02-22T21:18:11.714Z,52.63
2023-02-22T21:20:41.026Z,45.03
2023-02-22T21:23:08.551Z,48.00
2023-02-22T21:25:35.787Z,48.17
2023-02-22T21:28:02.938Z,47.53
2023-02-22T21:30:30.318Z,50.53
2023-02-22T21:32:57.815Z,47.93
2023-02-22T21:35:25.655Z,48.70
2023-02-22T21:37:52.917Z,45.00
2023-02-22T21:40:20.214Z,46.53
2023-02-22T21:42:48.123Z,45.73
2023-02-22T21:45:19.640Z,44.67
2023-02-22T21:47:49.252Z,47.80
2023-02-22T21:50:17.416Z,49.87
2023-02-22T21:52:44.966Z,45.83
2023-02-22T21:55:13.304Z,45.77
2023-02-22T21:57:43.926Z,48.90
2023-02-22T22:00:18.785Z,46.00
2023-02-22T22:02:46.279Z,51.47
2023-02-22T22:05:17.155Z,52.37
2023-02-22T22:07:44.669Z,48.33
2023-02-22T22:10:17.760Z,48.03
2023-02-22T22:13:09.156Z,48.50
2023-02-22T22:15:37.524Z,53.43
2023-02-22T22:18:09.871Z,52.20
2023-02-22T22:20:39.172Z,48.83
2023-02-22T22:23:09.044Z,49.73
2023-02-22T22:25:38.245Z,59.40
2023-02-22T22:28:09.377Z,56.13
2023-02-22T22:30:38.834Z,55.83
2023-02-22T22:33:11.641Z,53.40
2023-02-22T22:35:41.908Z,59.83
2023-02-22T22:38:09.532Z,59.37
2023-02-22T22:40:38.972Z,54.63
2023-02-22T22:43:09.257Z,49.37
2023-02-22T22:45:38.609Z,52.97
2023-02-22T22:48:06.101Z,58.63
2023-02-22T22:50:34.072Z,54.33
2023-02-22T22:53:01.236Z,49.90
2023-02-22T22:55:28.416Z,52.77
2023-02-22T22:57:55.578Z,62.63
2023-02-22T23:00:30.005Z,55.90
2023-02-22T23:02:57.303Z,52.30
2023-02-22T23:05:25.963Z,57.87
2023-02-22T23:07:53.944Z,62.30
2023-02-22T23:10:22.672Z,57.50
2023-02-22T23:12:49.800Z,58.20
2023-02-22T23:15:18.102Z,52.13
2023-02-22T23:17:45.668Z,64.77
2023-02-22T23:20:13.151Z,55.33
2023-02-22T23:22:46.733Z,60.30
2023-02-22T23:25:15.864Z,56.87
2023-02-22T23:27:43.039Z,57.93
2023-02-22T23:30:14.915Z,60.50
2023-02-22T23:32:46.574Z,60.87
2023-02-22T23:35:15.079Z,59.47
2023-02-22T23:37:42.960Z,67.93
2023-02-22T23:40:16.966Z,61.10
2023-02-22T23:42:48.978Z,64.10
2023-02-22T23:45:25.153Z,66.53
2023-02-22T23:47:54.910Z,63.83
2023-02-22T23:50:26.157Z,58.53
2023-02-22T23:52:57.772Z,68.73
2023-02-22T23:55:26.156Z,71.67
2023-02-22T23:57:59.122Z,73.13
